In Rescue
 
Open Full Screen Window  High Contrast Mode
Wind Gusting 00 knots
10
July 24, 2024 4:26 PM EDT
Weather Information
Wind Direction
  290 °
Wind Speed
  10 kt (12 mph)
Wind Gust
  00 kt (0 mph)
Altimeter
30.08 in
Visibility
3 SM
Temperature
23° C
73° F
Dewpoint
19° C
66° F
Humidity
78%
1hr Rain Fall
00.08 in.
24hr Rain Fall
00.42 in.
Sky Condition
Broken @ 6,000 ft
Scattered @ 4,700 ft
MVFR

METAR KPOV 242026Z AUTO 29010KT 3SM SCT047 BKN060 23/19 A3008 RMK AO2 P0008 T02270187 PWINO

FAA Disclaimer: The data displayed is for advisory purposes only and is not to be used for flight planning or operations.